sensor_id;sensor_type;location;lat;lon;timestamp;pressure;altitude;pressure_sealevel;temperature;humidity
63090;BME280;49174;43.198;27.824;2023-04-21T03:59:10;101044.03;;;10.37;100.00
63090;BME280;49174;43.198;27.824;2023-04-21T04:01:36;101045.03;;;10.36;100.00
63090;BME280;49174;43.198;27.824;2023-04-21T04:04:02;101038.91;;;10.42;100.00
63090;BME280;49174;43.198;27.824;2023-04-21T04:06:27;101044.38;;;10.49;100.00
63090;BME280;49174;43.198;27.824;2023-04-21T04:08:53;101055.47;;;10.54;100.00
63090;BME280;49174;43.198;27.824;2023-04-21T04:11:18;101057.59;;;10.59;100.00
63090;BME280;49174;43.198;27.824;2023-04-21T04:13:44;101065.31;;;10.62;100.00
63090;BME280;49174;43.198;27.824;2023-04-21T04:16:09;101068.06;;;10.68;100.00
63090;BME280;49174;43.198;27.824;2023-04-21T04:18:35;101072.91;;;10.73;100.00
63090;BME280;49174;43.198;27.824;2023-04-21T04:21:05;101071.22;;;10.72;100.00
63090;BME280;49174;43.198;27.824;2023-04-21T04:23:32;101083.50;;;10.74;100.00
63090;BME280;49174;43.198;27.824;2023-04-21T04:25:57;101085.19;;;10.76;100.00
63090;BME280;49174;43.198;27.824;2023-04-21T04:28:23;101083.31;;;10.76;100.00
63090;BME280;49174;43.198;27.824;2023-04-21T04:30:49;101083.78;;;10.80;100.00
63090;BME280;49174;43.198;27.824;2023-04-21T04:33:15;101093.53;;;10.81;100.00
63090;BME280;49174;43.198;27.824;2023-04-21T04:35:40;101085.25;;;10.82;100.00
63090;BME280;49174;43.198;27.824;2023-04-21T04:38:06;101090.84;;;10.81;100.00
63090;BME280;49174;43.198;27.824;2023-04-21T04:40:32;101090.47;;;10.84;100.00
63090;BME280;49174;43.198;27.824;2023-04-21T04:42:58;101091.31;;;10.84;100.00
63090;BME280;49174;43.198;27.824;2023-04-21T04:45:25;101092.81;;;10.87;100.00
63090;BME280;49174;43.198;27.824;2023-04-21T04:47:52;101088.88;;;10.89;100.00
63090;BME280;49174;43.198;27.824;2023-04-21T04:50:24;101088.28;;;10.94;100.00
63090;BME280;49174;43.198;27.824;2023-04-21T04:52:50;101093.97;;;10.99;100.00
63090;BME280;49174;43.198;27.824;2023-04-21T04:55:17;101096.66;;;10.99;100.00
63090;BME280;49174;43.198;27.824;2023-04-21T04:57:43;101098.16;;;11.02;100.00
63090;BME280;49174;43.198;27.824;2023-04-21T05:00:09;101094.22;;;11.04;100.00
63090;BME280;49174;43.198;27.824;2023-04-21T05:02:39;101095.28;;;11.03;100.00
63090;BME280;49174;43.198;27.824;2023-04-21T05:05:05;101094.22;;;11.04;100.00
63090;BME280;49174;43.198;27.824;2023-04-21T05:07:31;101101.69;;;11.02;100.00
63090;BME280;49174;43.198;27.824;2023-04-21T05:09:56;101091.16;;;11.07;100.00
63090;BME280;49174;43.198;27.824;2023-04-21T05:12:22;101092.25;;;11.13;100.00
63090;BME280;49174;43.198;27.824;2023-04-21T05:14:47;101099.97;;;11.16;100.00
63090;BME280;49174;43.198;27.824;2023-04-21T05:17:13;101097.69;;;11.19;100.00
63090;BME280;49174;43.198;27.824;2023-04-21T05:19:38;101093.28;;;11.12;100.00
63090;BME280;49174;43.198;27.824;2023-04-21T05:22:04;101098.28;;;11.15;100.00
63090;BME280;49174;43.198;27.824;2023-04-21T05:24:33;101092.69;;;11.16;100.00
63090;BME280;49174;43.198;27.824;2023-04-21T05:26:59;101091.28;;;11.21;100.00
63090;BME280;49174;43.198;27.824;2023-04-21T05:29:25;101099.56;;;11.19;100.00
63090;BME280;49174;43.198;27.824;2023-04-21T05:31:51;101095.78;;;11.13;100.00
63090;BME280;49174;43.198;27.824;2023-04-21T05:34:16;101094.09;;;11.12;100.00
63090;BME280;49174;43.198;27.824;2023-04-21T05:36:42;101088.31;;;11.15;100.00
63090;BME280;49174;43.198;27.824;2023-04-21T05:39:08;101085.88;;;11.21;100.00
63090;BME280;49174;43.198;27.824;2023-04-21T05:41:33;101080.41;;;11.14;100.00
63090;BME280;49174;43.198;27.824;2023-04-21T05:43:59;101089.41;;;11.21;100.00
63090;BME280;49174;43.198;27.824;2023-04-21T05:46:24;101080.53;;;11.27;100.00
63090;BME280;49174;43.198;27.824;2023-04-21T05:48:50;101083.94;;;11.36;100.00
63090;BME280;49174;43.198;27.824;2023-04-21T05:51:15;101088.25;;;11.52;100.00
63090;BME280;49174;43.198;27.824;2023-04-21T05:53:42;101093.69;;;11.58;100.00
63090;BME280;49174;43.198;27.824;2023-04-21T05:56:08;101089.38;;;11.64;100.00
63090;BME280;49174;43.198;27.824;2023-04-21T05:58:35;101086.09;;;11.69;100.00
63090;BME280;49174;43.198;27.824;2023-04-21T06:01:00;101087.63;;;11.78;100.00
63090;BME280;49174;43.198;27.824;2023-04-21T06:03:26;101078.59;;;11.92;100.00
63090;BME280;49174;43.198;27.824;2023-04-21T06:05:55;101086.53;;;11.94;99.35
63090;BME280;49174;43.198;27.824;2023-04-21T06:08:22;101076.78;;;11.99;100.00
63090;BME280;49174;43.198;27.824;2023-04-21T06:10:47;101082.72;;;12.16;97.98
63090;BME280;49174;43.198;27.824;2023-04-21T06:13:13;101088.41;;;12.28;98.18
63090;BME280;49174;43.198;27.824;2023-04-21T06:15:39;101083.88;;;12.35;98.14
63090;BME280;49174;43.198;27.824;2023-04-21T06:18:04;101087.81;;;12.39;98.03
63090;BME280;49174;43.198;27.824;2023-04-21T06:20:30;101090.13;;;12.42;97.19
63090;BME280;49174;43.198;27.824;2023-04-21T06:22:55;101107.84;;;12.45;95.68
63090;BME280;49174;43.198;27.824;2023-04-21T06:25:21;101127.59;;;12.39;96.75
63090;BME280;49174;43.198;27.824;2023-04-21T06:27:46;101133.38;;;12.29;96.78
63090;BME280;49174;43.198;27.824;2023-04-21T06:30:12;101141.81;;;12.19;97.27
63090;BME280;49174;43.198;27.824;2023-04-21T06:32:38;101148.63;;;12.08;96.87
63090;BME280;49174;43.198;27.824;2023-04-21T06:35:04;101151.03;;;11.97;93.76
63090;BME280;49174;43.198;27.824;2023-04-21T06:37:30;101151.88;;;11.76;92.31
63090;BME280;49174;43.198;27.824;2023-04-21T06:39:56;101154.63;;;11.61;92.81
63090;BME280;49174;43.198;27.824;2023-04-21T06:42:21;101164.56;;;11.54;90.32
63090;BME280;49174;43.198;27.824;2023-04-21T06:44:47;101163.22;;;11.43;89.25
63090;BME280;49174;43.198;27.824;2023-04-21T06:47:12;101166.19;;;11.33;89.13
63090;BME280;49174;43.198;27.824;2023-04-21T06:49:38;101169.22;;;11.24;87.34
63090;BME280;49174;43.198;27.824;2023-04-21T06:52:03;101175.41;;;11.17;87.95
63090;BME280;49174;43.198;27.824;2023-04-21T06:54:29;101173.19;;;11.06;87.20
63090;BME280;49174;43.198;27.824;2023-04-21T06:56:54;101171.22;;;11.00;87.24
63090;BME280;49174;43.198;27.824;2023-04-21T06:59:21;101174.31;;;10.97;86.85
63090;BME280;49174;43.198;27.824;2023-04-21T07:01:47;101182.88;;;11.01;87.66
63090;BME280;49174;43.198;27.824;2023-04-21T07:04:19;101182.13;;;10.92;84.30
63090;BME280;49174;43.198;27.824;2023-04-21T07:06:45;101182.50;;;10.89;84.71
63090;BME280;49174;43.198;27.824;2023-04-21T07:09:11;101181.88;;;10.87;84.77
63090;BME280;49174;43.198;27.824;2023-04-21T07:11:37;101184.38;;;10.88;85.61
63090;BME280;49174;43.198;27.824;2023-04-21T07:14:02;101180.66;;;10.89;85.65
63090;BME280;49174;43.198;27.824;2023-04-21T07:16:28;101183.16;;;10.91;85.37
63090;BME280;49174;43.198;27.824;2023-04-21T07:18:53;101187.53;;;10.92;84.93
63090;BME280;49174;43.198;27.824;2023-04-21T07:21:19;101187.91;;;11.04;88.17
63090;BME280;49174;43.198;27.824;2023-04-21T07:23:44;101188.41;;;11.14;86.60
63090;BME280;49174;43.198;27.824;2023-04-21T07:26:10;101185.16;;;11.18;85.87
63090;BME280;49174;43.198;27.824;2023-04-21T07:28:37;101190.56;;;11.18;85.33
63090;BME280;49174;43.198;27.824;2023-04-21T07:31:03;101199.59;;;11.26;85.72
63090;BME280;49174;43.198;27.824;2023-04-21T07:33:29;101198.94;;;11.24;85.72
63090;BME280;49174;43.198;27.824;2023-04-21T07:35:54;101193.44;;;11.32;83.49
63090;BME280;49174;43.198;27.824;2023-04-21T07:38:20;101195.69;;;11.28;85.15
63090;BME280;49174;43.198;27.824;2023-04-21T07:40:46;101180.69;;;11.26;83.18
63090;BME280;49174;43.198;27.824;2023-04-21T07:43:11;101187.38;;;11.30;83.62
63090;BME280;49174;43.198;27.824;2023-04-21T07:45:37;101189.25;;;11.29;84.99
63090;BME280;49174;43.198;27.824;2023-04-21T07:48:02;101185.81;;;11.42;84.63
63090;BME280;49174;43.198;27.824;2023-04-21T07:50:30;101173.88;;;11.51;85.12
63090;BME280;49174;43.198;27.824;2023-04-21T07:52:55;101171.84;;;11.53;82.93
63090;BME280;49174;43.198;27.824;2023-04-21T07:55:21;101173.56;;;11.61;82.52
63090;BME280;49174;43.198;27.824;2023-04-21T07:57:47;101173.88;;;11.73;82.35
63090;BME280;49174;43.198;27.824;2023-04-21T08:00:14;101165.00;;;11.79;83.92
63090;BME280;49174;43.198;27.824;2023-04-21T08:02:40;101163.03;;;11.88;82.49
63090;BME280;49174;43.198;27.824;2023-04-21T08:05:05;101167.22;;;11.90;82.07
63090;BME280;49174;43.198;27.824;2023-04-21T08:07:31;101170.53;;;11.92;81.95
63090;BME280;49174;43.198;27.824;2023-04-21T08:09:57;101178.47;;;11.94;81.11
63090;BME280;49174;43.198;27.824;2023-04-21T08:12:22;101184.31;;;11.97;80.10
63090;BME280;49174;43.198;27.824;2023-04-21T08:14:48;101183.69;;;11.95;81.46
63090;BME280;49174;43.198;27.824;2023-04-21T08:17:13;101196.59;;;12.00;82.22
63090;BME280;49174;43.198;27.824;2023-04-21T08:19:39;101193.19;;;12.13;82.47
63090;BME280;49174;43.198;27.824;2023-04-21T08:22:04;101204.13;;;12.26;82.12
63090;BME280;49174;43.198;27.824;2023-04-21T08:24:29;101184.84;;;12.42;80.51
63090;BME280;49174;43.198;27.824;2023-04-21T08:26:55;101183.03;;;12.49;79.61
63090;BME280;49174;43.198;27.824;2023-04-21T08:29:22;101180.59;;;12.61;82.26
63090;BME280;49174;43.198;27.824;2023-04-21T08:31:47;101184.38;;;12.67;81.53
63090;BME280;49174;43.198;27.824;2023-04-21T08:34:13;101180.88;;;12.73;81.96
63090;BME280;49174;43.198;27.824;2023-04-21T08:36:38;101183.63;;;12.80;82.50
63090;BME280;49174;43.198;27.824;2023-04-21T08:39:05;101176.91;;;12.75;79.43
63090;BME280;49174;43.198;27.824;2023-04-21T08:41:31;101181.50;;;12.75;80.66
63090;BME280;49174;43.198;27.824;2023-04-21T08:43:56;101176.34;;;12.80;80.71
63090;BME280;49174;43.198;27.824;2023-04-21T08:46:22;101175.28;;;12.81;79.09
63090;BME280;49174;43.198;27.824;2023-04-21T08:48:48;101175.69;;;12.78;77.12
63090;BME280;49174;43.198;27.824;2023-04-21T08:51:23;101173.22;;;12.83;78.38
63090;BME280;49174;43.198;27.824;2023-04-21T08:53:53;101164.91;;;12.91;79.78
63090;BME280;49174;43.198;27.824;2023-04-21T08:56:19;101161.63;;;12.96;77.63
63090;BME280;49174;43.198;27.824;2023-04-21T08:58:45;101170.34;;;12.98;77.44
63090;BME280;49174;43.198;27.824;2023-04-21T09:01:10;101177.47;;;13.06;76.04
63090;BME280;49174;43.198;27.824;2023-04-21T09:03:36;101174.56;;;13.07;73.04
63090;BME280;49174;43.198;27.824;2023-04-21T09:06:04;101174.19;;;13.17;76.55
63090;BME280;49174;43.198;27.824;2023-04-21T09:08:30;101177.16;;;13.29;75.00
63090;BME280;49174;43.198;27.824;2023-04-21T09:10:57;101171.56;;;13.37;74.94
63090;BME280;49174;43.198;27.824;2023-04-21T09:13:35;101162.00;;;13.48;76.78
63090;BME280;49174;43.198;27.824;2023-04-21T09:16:02;101165.97;;;13.58;74.79
63090;BME280;49174;43.198;27.824;2023-04-21T09:18:29;101157.88;;;13.65;75.00
63090;BME280;49174;43.198;27.824;2023-04-21T09:21:09;101155.56;;;13.75;71.97
63090;BME280;49174;43.198;27.824;2023-04-21T09:23:54;101151.00;;;13.82;69.81
63090;BME280;49174;43.198;27.824;2023-04-21T09:26:20;101152.03;;;13.95;72.07
63090;BME280;49174;43.198;27.824;2023-04-21T09:28:51;101144.72;;;14.15;69.32
63090;BME280;49174;43.198;27.824;2023-04-21T09:31:19;101144.06;;;14.26;68.03
63090;BME280;49174;43.198;27.824;2023-04-21T09:33:55;101142.78;;;14.29;67.18
63090;BME280;49174;43.198;27.824;2023-04-21T09:36:26;101138.00;;;14.38;68.32
63090;BME280;49174;43.198;27.824;2023-04-21T09:41:24;101141.47;;;14.65;68.02
63090;BME280;49174;43.198;27.824;2023-04-21T09:43:50;101143.59;;;14.56;68.64
63090;BME280;49174;43.198;27.824;2023-04-21T09:46:19;101149.88;;;14.63;67.14
63090;BME280;49174;43.198;27.824;2023-04-21T09:48:47;101152.19;;;14.46;65.83
63090;BME280;49174;43.198;27.824;2023-04-21T09:51:15;101138.81;;;14.31;69.26
63090;BME280;49174;43.198;27.824;2023-04-21T09:53:42;101142.00;;;14.15;68.98
63090;BME280;49174;43.198;27.824;2023-04-21T09:56:13;101140.94;;;14.16;67.71
63090;BME280;49174;43.198;27.824;2023-04-21T09:58:47;101137.78;;;14.26;70.36
63090;BME280;49174;43.198;27.824;2023-04-21T10:01:16;101128.78;;;14.39;69.32
63090;BME280;49174;43.198;27.824;2023-04-21T10:03:43;101133.81;;;14.35;70.66
63090;BME280;49174;43.198;27.824;2023-04-21T10:06:11;101131.91;;;14.49;69.25
63090;BME280;49174;43.198;27.824;2023-04-21T10:08:36;101131.50;;;14.52;68.39
63090;BME280;49174;43.198;27.824;2023-04-21T10:11:03;101125.00;;;14.66;63.48
63090;BME280;49174;43.198;27.824;2023-04-21T10:13:29;101126.41;;;14.75;61.18
63090;BME280;49174;43.198;27.824;2023-04-21T10:16:05;101125.16;;;14.78;63.27
63090;BME280;49174;43.198;27.824;2023-04-21T10:18:38;101132.22;;;14.86;64.49
63090;BME280;49174;43.198;27.824;2023-04-21T10:21:08;101129.72;;;14.84;62.74
63090;BME280;49174;43.198;27.824;2023-04-21T10:26:05;101130.38;;;14.73;60.55
63090;BME280;49174;43.198;27.824;2023-04-21T10:31:34;101140.03;;;14.69;60.70
63090;BME280;49174;43.198;27.824;2023-04-21T10:39:25;101139.31;;;14.87;59.62
63090;BME280;49174;43.198;27.824;2023-04-21T10:41:51;101130.66;;;15.03;59.59
63090;BME280;49174;43.198;27.824;2023-04-21T10:44:20;101122.19;;;15.25;59.32
63090;BME280;49174;43.198;27.824;2023-04-21T10:46:50;101128.91;;;15.54;59.84
63090;BME280;49174;43.198;27.824;2023-04-21T10:49:26;101129.78;;;15.79;60.17
63090;BME280;49174;43.198;27.824;2023-04-21T10:54:28;101134.63;;;16.02;57.08
63090;BME280;49174;43.198;27.824;2023-04-21T10:56:57;101132.53;;;16.23;57.83
63090;BME280;49174;43.198;27.824;2023-04-21T10:59:24;101133.88;;;16.32;53.26
63090;BME280;49174;43.198;27.824;2023-04-21T11:01:51;101132.41;;;16.36;55.18
63090;BME280;49174;43.198;27.824;2023-04-21T11:04:20;101128.53;;;16.25;56.25
63090;BME280;49174;43.198;27.824;2023-04-21T11:09:34;101139.03;;;16.22;54.62
63090;BME280;49174;43.198;27.824;2023-04-21T11:12:02;101140.16;;;15.89;52.58
63090;BME280;49174;43.198;27.824;2023-04-21T11:14:29;101140.28;;;15.76;56.11
63090;BME280;49174;43.198;27.824;2023-04-21T11:16:55;101146.63;;;15.63;54.62
63090;BME280;49174;43.198;27.824;2023-04-21T11:19:20;101138.06;;;15.59;55.85
63090;BME280;49174;43.198;27.824;2023-04-21T11:21:49;101137.69;;;15.56;55.90
63090;BME280;49174;43.198;27.824;2023-04-21T11:24:14;101129.91;;;15.59;54.83
63090;BME280;49174;43.198;27.824;2023-04-21T11:26:40;101131.13;;;15.63;55.86
63090;BME280;49174;43.198;27.824;2023-04-21T11:29:09;101130.66;;;15.73;57.44
63090;BME280;49174;43.198;27.824;2023-04-21T11:31:37;101131.09;;;15.70;55.42
63090;BME280;49174;43.198;27.824;2023-04-21T11:34:05;101122.47;;;15.80;55.15
63090;BME280;49174;43.198;27.824;2023-04-21T11:36:41;101134.44;;;16.22;55.84
63090;BME280;49174;43.198;27.824;2023-04-21T11:39:10;101132.13;;;16.81;55.90
63090;BME280;49174;43.198;27.824;2023-04-21T11:41:41;101128.78;;;16.97;52.29
63090;BME280;49174;43.198;27.824;2023-04-21T11:44:07;101131.03;;;17.01;53.08
63090;BME280;49174;43.198;27.824;2023-04-21T11:46:33;101137.69;;;16.68;49.85
63090;BME280;49174;43.198;27.824;2023-04-21T11:49:05;101132.25;;;16.68;53.51
63090;BME280;49174;43.198;27.824;2023-04-21T11:51:36;101137.38;;;16.76;51.83
63090;BME280;49174;43.198;27.824;2023-04-21T11:54:04;101134.38;;;16.84;53.08
63090;BME280;49174;43.198;27.824;2023-04-21T11:56:37;101147.38;;;17.01;55.71
63090;BME280;49174;43.198;27.824;2023-04-21T12:01:32;101133.25;;;16.92;53.60
63090;BME280;49174;43.198;27.824;2023-04-21T12:03:57;101141.41;;;16.92;52.45
63090;BME280;49174;43.198;27.824;2023-04-21T12:06:25;101134.22;;;16.97;52.46
63090;BME280;49174;43.198;27.824;2023-04-21T12:09:01;101143.66;;;17.13;52.11
63090;BME280;49174;43.198;27.824;2023-04-21T12:11:28;101140.09;;;17.13;50.05
63090;BME280;49174;43.198;27.824;2023-04-21T12:13:57;101126.88;;;17.28;49.22
63090;BME280;49174;43.198;27.824;2023-04-21T12:16:24;101134.06;;;17.11;48.21
63090;BME280;49174;43.198;27.824;2023-04-21T12:18:52;101146.91;;;17.22;51.40
63090;BME280;49174;43.198;27.824;2023-04-21T12:21:17;101144.84;;;17.48;48.34
63090;BME280;49174;43.198;27.824;2023-04-21T12:23:43;101144.25;;;17.46;48.88
63090;BME280;49174;43.198;27.824;2023-04-21T12:26:09;101145.03;;;17.34;47.77
63090;BME280;49174;43.198;27.824;2023-04-21T12:28:35;101151.13;;;17.18;48.27
63090;BME280;49174;43.198;27.824;2023-04-21T12:31:00;101142.69;;;17.08;50.77
63090;BME280;49174;43.198;27.824;2023-04-21T12:33:26;101153.59;;;16.89;47.74
63090;BME280;49174;43.198;27.824;2023-04-21T12:35:51;101136.34;;;16.95;49.16
63090;BME280;49174;43.198;27.824;2023-04-21T12:38:17;101151.75;;;17.20;49.49
63090;BME280;49174;43.198;27.824;2023-04-21T12:40:42;101145.19;;;17.39;45.78
63090;BME280;49174;43.198;27.824;2023-04-21T12:43:08;101140.34;;;17.53;46.81
63090;BME280;49174;43.198;27.824;2023-04-21T12:45:34;101137.19;;;17.68;46.09
63090;BME280;49174;43.198;27.824;2023-04-21T12:48:00;101132.63;;;17.80;47.18
63090;BME280;49174;43.198;27.824;2023-04-21T12:50:25;101143.41;;;17.99;45.06
63090;BME280;49174;43.198;27.824;2023-04-21T12:52:51;101142.03;;;17.66;45.04
63090;BME280;49174;43.198;27.824;2023-04-21T12:55:20;101153.69;;;17.31;45.83
63090;BME280;49174;43.198;27.824;2023-04-21T12:57:46;101141.44;;;17.22;46.26
63090;BME280;49174;43.198;27.824;2023-04-21T13:00:12;101147.72;;;17.23;46.05
63090;BME280;49174;43.198;27.824;2023-04-21T13:02:40;101147.94;;;17.21;46.85
63090;BME280;49174;43.198;27.824;2023-04-21T13:05:05;101143.06;;;17.11;47.43
63090;BME280;49174;43.198;27.824;2023-04-21T13:07:35;101138.28;;;17.07;46.79
63090;BME280;49174;43.198;27.824;2023-04-21T13:10:04;101139.44;;;16.99;48.84
63090;BME280;49174;43.198;27.824;2023-04-21T13:12:31;101132.31;;;16.98;47.78
63090;BME280;49174;43.198;27.824;2023-04-21T13:14:57;101128.53;;;17.29;48.33
63090;BME280;49174;43.198;27.824;2023-04-21T13:17:23;101140.31;;;17.41;48.09
63090;BME280;49174;43.198;27.824;2023-04-21T13:19:49;101132.78;;;17.25;47.80
63090;BME280;49174;43.198;27.824;2023-04-21T13:22:14;101138.25;;;17.25;46.74
63090;BME280;49174;43.198;27.824;2023-04-21T13:24:41;101128.94;;;17.45;47.34
63090;BME280;49174;43.198;27.824;2023-04-21T13:27:06;101125.16;;;17.57;45.97
63090;BME280;49174;43.198;27.824;2023-04-21T13:29:32;101135.09;;;17.40;47.59
63090;BME280;49174;43.198;27.824;2023-04-21T13:32:08;101144.81;;;17.36;47.23
63090;BME280;49174;43.198;27.824;2023-04-21T13:34:33;101147.31;;;17.49;47.38
63090;BME280;49174;43.198;27.824;2023-04-21T13:37:00;101148.81;;;17.63;46.52
63090;BME280;49174;43.198;27.824;2023-04-21T13:39:25;101155.28;;;17.51;47.23
63090;BME280;49174;43.198;27.824;2023-04-21T13:49:57;101140.81;;;17.80;47.41
63090;BME280;49174;43.198;27.824;2023-04-21T13:52:23;101145.19;;;17.93;46.62
63090;BME280;49174;43.198;27.824;2023-04-21T13:54:50;101135.56;;;18.02;45.01
63090;BME280;49174;43.198;27.824;2023-04-21T13:57:16;101141.75;;;18.21;46.36
63090;BME280;49174;43.198;27.824;2023-04-21T13:59:42;101147.22;;;18.21;44.94
63090;BME280;49174;43.198;27.824;2023-04-21T14:02:08;101136.28;;;18.21;44.41
63090;BME280;49174;43.198;27.824;2023-04-21T14:07:15;101140.56;;;18.41;45.77
63090;BME280;49174;43.198;27.824;2023-04-21T14:09:44;101134.59;;;18.67;44.46
63090;BME280;49174;43.198;27.824;2023-04-21T14:12:09;101136.16;;;18.75;44.24
63090;BME280;49174;43.198;27.824;2023-04-21T14:14:36;101138.28;;;18.49;44.05
63090;BME280;49174;43.198;27.824;2023-04-21T14:17:02;101136.41;;;18.26;44.19
63090;BME280;49174;43.198;27.824;2023-04-21T14:19:28;101128.81;;;18.28;44.51
63090;BME280;49174;43.198;27.824;2023-04-21T14:21:56;101143.16;;;18.36;44.69
63090;BME280;49174;43.198;27.824;2023-04-21T14:24:22;101144.50;;;18.21;42.88
63090;BME280;49174;43.198;27.824;2023-04-21T14:26:47;101138.22;;;18.09;43.09
63090;BME280;49174;43.198;27.824;2023-04-21T14:29:17;101143.63;;;17.85;44.45
63090;BME280;49174;43.198;27.824;2023-04-21T14:34:30;101151.91;;;17.67;45.33
63090;BME280;49174;43.198;27.824;2023-04-21T14:36:55;101142.59;;;17.86;43.68
63090;BME280;49174;43.198;27.824;2023-04-21T14:39:24;101149.34;;;17.96;43.85
63090;BME280;49174;43.198;27.824;2023-04-21T14:41:50;101148.41;;;18.02;45.21
63090;BME280;49174;43.198;27.824;2023-04-21T14:44:16;101153.06;;;18.25;44.21
63090;BME280;49174;43.198;27.824;2023-04-21T14:46:43;101151.00;;;18.44;44.46
63090;BME280;49174;43.198;27.824;2023-04-21T14:49:09;101141.63;;;18.51;44.45
63090;BME280;49174;43.198;27.824;2023-04-21T14:51:35;101145.31;;;18.45;43.96
63090;BME280;49174;43.198;27.824;2023-04-21T14:54:03;101148.75;;;18.41;44.23
63090;BME280;49174;43.198;27.824;2023-04-21T14:56:29;101141.38;;;18.41;45.01
63090;BME280;49174;43.198;27.824;2023-04-21T14:58:54;101133.94;;;18.37;44.12
63090;BME280;49174;43.198;27.824;2023-04-21T15:01:20;101136.41;;;18.26;43.47
63090;BME280;49174;43.198;27.824;2023-04-21T15:03:46;101140.34;;;18.07;43.91
63090;BME280;49174;43.198;27.824;2023-04-21T15:06:11;101137.09;;;17.75;44.96
63090;BME280;49174;43.198;27.824;2023-04-21T15:08:37;101143.44;;;17.57;45.46
63090;BME280;49174;43.198;27.824;2023-04-21T15:11:02;101145.19;;;17.39;45.66
63090;BME280;49174;43.198;27.824;2023-04-21T15:13:28;101154.16;;;17.28;46.75
63090;BME280;49174;43.198;27.824;2023-04-21T15:15:54;101146.75;;;17.17;47.32
63090;BME280;49174;43.198;27.824;2023-04-21T15:18:19;101146.59;;;17.12;48.45
63090;BME280;49174;43.198;27.824;2023-04-21T15:20:45;101147.53;;;17.06;48.74
63090;BME280;49174;43.198;27.824;2023-04-21T15:23:11;101146.94;;;17.04;48.97
63090;BME280;49174;43.198;27.824;2023-04-21T15:25:37;101146.56;;;17.00;48.48
63090;BME280;49174;43.198;27.824;2023-04-21T15:28:02;101149.13;;;16.95;49.45
63090;BME280;49174;43.198;27.824;2023-04-21T15:30:28;101140.44;;;16.86;48.43
63090;BME280;49174;43.198;27.824;2023-04-21T15:32:53;101146.03;;;16.73;49.01
63090;BME280;49174;43.198;27.824;2023-04-21T15:35:19;101135.56;;;16.70;50.02
63090;BME280;49174;43.198;27.824;2023-04-21T15:37:45;101143.38;;;16.66;49.00
63090;BME280;49174;43.198;27.824;2023-04-21T15:40:10;101136.03;;;16.67;50.02
63090;BME280;49174;43.198;27.824;2023-04-21T15:42:36;101129.16;;;16.64;49.08
63090;BME280;49174;43.198;27.824;2023-04-21T15:45:01;101134.97;;;16.68;49.62
63090;BME280;49174;43.198;27.824;2023-04-21T15:47:28;101125.75;;;16.69;51.50
63090;BME280;49174;43.198;27.824;2023-04-21T15:49:54;101126.31;;;16.78;50.74
63090;BME280;49174;43.198;27.824;2023-04-21T15:52:19;101126.66;;;16.81;50.55
63090;BME280;49174;43.198;27.824;2023-04-21T15:54:45;101124.69;;;16.88;49.26
63090;BME280;49174;43.198;27.824;2023-04-21T15:57:11;101122.56;;;16.90;49.86
63090;BME280;49174;43.198;27.824;2023-04-21T15:59:36;101121.59;;;16.85;50.49
63090;BME280;49174;43.198;27.824;2023-04-21T16:02:02;101115.59;;;16.76;51.23
63090;BME280;49174;43.198;27.824;2023-04-21T16:04:27;101118.78;;;16.73;51.82
63090;BME280;49174;43.198;27.824;2023-04-21T16:06:53;101125.13;;;16.67;51.92
63090;BME280;49174;43.198;27.824;2023-04-21T16:09:19;101124.97;;;16.62;53.64
63090;BME280;49174;43.198;27.824;2023-04-21T16:11:46;101132.53;;;16.60;52.91
63090;BME280;49174;43.198;27.824;2023-04-21T16:14:14;101130.22;;;16.45;52.77
63090;BME280;49174;43.198;27.824;2023-04-21T16:16:41;101136.78;;;16.37;53.49
63090;BME280;49174;43.198;27.824;2023-04-21T16:19:07;101133.06;;;16.31;54.95
63090;BME280;49174;43.198;27.824;2023-04-21T16:21:33;101125.19;;;16.23;54.49
63090;BME280;49174;43.198;27.824;2023-04-21T16:26:42;101135.63;;;16.08;56.53
63090;BME280;49174;43.198;27.824;2023-04-21T16:29:07;101134.22;;;15.99;55.55
63090;BME280;49174;43.198;27.824;2023-04-21T16:31:33;101140.34;;;15.94;56.78
63090;BME280;49174;43.198;27.824;2023-04-21T16:33:58;101143.72;;;15.90;56.67
63090;BME280;49174;43.198;27.824;2023-04-21T16:36:27;101142.34;;;15.80;57.44
63090;BME280;49174;43.198;27.824;2023-04-21T16:38:56;101139.88;;;15.65;57.96
63090;BME280;49174;43.198;27.824;2023-04-21T16:41:22;101138.28;;;15.58;59.02
63090;BME280;49174;43.198;27.824;2023-04-21T16:43:48;101153.78;;;15.57;59.87
63090;BME280;49174;43.198;27.824;2023-04-21T16:46:13;101143.63;;;15.46;60.07
63090;BME280;49174;43.198;27.824;2023-04-21T16:48:39;101142.63;;;15.34;60.57
63090;BME280;49174;43.198;27.824;2023-04-21T16:51:05;101140.16;;;15.26;59.90
63090;BME280;49174;43.198;27.824;2023-04-21T16:56:13;101151.53;;;15.09;60.05
63090;BME280;49174;43.198;27.824;2023-04-21T17:35:06;101193.72;;;13.67;66.98
